Pine Grove, West Virginia
Current Conditions -  °F | °C
As of 5:53 PM on Friday 28 Nov 2014 (Local Time) from KCKB Reporting Station
Clear Clear  
Wind Chill: 19°   Ceiling: Unl
Heat Index: 26°   Visibility: 10mi
Dew Point: 18°   Wind: 6mph
Humidity: 71%   Direction: 220°SW
Pressure: 30.25"   Gusts: NA
Location:  39.57°N, 80.68°W
Report Text: KCKB 282253Z 22005KT 10SM CLR M03/M08 A3025 RMK AO2 SLP254 T10331078
Loading
Personal Weather Stations






























Interactive Weather Map New forecast layout! Learn more

10-Day Weather Forecast

Advertisements
Track Severe Weather on mobile